Skip Navigation LinksHome page > Weather > Current weather Skip Navigation Links

Current Weather

Jakutsk, Russia

For information only: do not use for flight planning or navigation.
Latest weather
Observation time Friday, August 26, 2016 6:30 AM JST
Local time Friday, August 26, 2016 7:02 AM JST
Flight conditions Visual Meteorological Conditions
Winds
Wind direction Northwest (310°)
Wind speed 13 mph
Visibility 6.2 mi.
Sky condition
Ceiling unlimited
Cloud layer scattered clouds 3,000 ft.
Temperature 41°F
Dewpoint 28°F
Altimeter 29.50 in.Hg
Precipitation
QF 6:20 PM
Derived measurements
Relative humidity 61%
Wind chill 34°F
Density altitude -301 ft.
Remarks
No significant changes expected in the next two hours.
METAR UEEE 252130Z 31006MPS 9999 SCT030 05/M02 Q0999 R23L/09//60 NOSIG RMK QFE740

Settings

Location code

InnerDrive.Weather 4.0.5722.1 Release CLR 4.0.30319.34209
Copyright ©2015 Inner Drive Technology. All rights reserved. Portions Copyright ©1986-2015 David Braverman.

Find weather

Site navigation


Skip Navigation Links

Place info

Page info

PayPal - The safer, easier way to pay online!

Return home.

Copyright ©2016 Inner Drive Technology. Purveyors of fine, hand-crafted computer software. Page printed 2016-08-25T22:02:17 UTC.